createdAt,value
2018-09-16T00:02:04.112Z,14.00
2018-09-16T00:04:32.753Z,13.40
2018-09-16T00:07:01.449Z,12.87
2018-09-16T00:09:30.131Z,13.30
2018-09-16T00:11:58.788Z,13.63
2018-09-16T00:14:27.678Z,12.87
2018-09-16T00:16:56.377Z,13.57
2018-09-16T00:19:25.064Z,12.73
2018-09-16T00:21:53.756Z,13.10
2018-09-16T00:24:22.393Z,13.67
2018-09-16T00:26:51.070Z,12.50
2018-09-16T00:29:19.734Z,12.37
2018-09-16T00:31:52.537Z,13.37
2018-09-16T00:34:21.162Z,15.60
2018-09-16T00:36:49.824Z,18.17
2018-09-16T00:39:18.547Z,12.90
2018-09-16T00:41:47.228Z,13.53
2018-09-16T00:44:15.894Z,13.37
2018-09-16T00:46:44.667Z,13.80
2018-09-16T00:49:13.312Z,14.30
2018-09-16T00:51:42.834Z,13.73
2018-09-16T00:54:11.511Z,13.03
2018-09-16T00:56:40.155Z,13.43
2018-09-16T00:59:08.823Z,13.53
2018-09-16T01:01:37.470Z,13.00
2018-09-16T01:04:06.262Z,14.20
2018-09-16T01:06:37.486Z,11.77
2018-09-16T01:09:10.622Z,11.50
2018-09-16T01:11:39.318Z,11.67
2018-09-16T01:14:08.790Z,12.77
2018-09-16T01:16:38.379Z,11.67
2018-09-16T01:19:07.594Z,12.07
2018-09-16T01:21:36.789Z,12.00
2018-09-16T01:24:05.862Z,11.90
2018-09-16T01:26:34.810Z,12.23
2018-09-16T01:29:03.465Z,11.80
2018-09-16T01:31:32.137Z,11.33
2018-09-16T01:34:00.828Z,12.33
2018-09-16T01:36:29.491Z,11.33
2018-09-16T01:38:58.295Z,12.20
2018-09-16T01:41:26.987Z,12.10
2018-09-16T01:43:55.661Z,10.97
2018-09-16T01:46:24.330Z,11.73
2018-09-16T01:48:53.078Z,11.80
2018-09-16T01:51:21.735Z,11.30
2018-09-16T01:53:50.412Z,11.37
2018-09-16T01:56:19.062Z,11.97
2018-09-16T01:58:47.747Z,11.50
2018-09-16T02:01:16.374Z,12.30
2018-09-16T02:03:45.073Z,12.10
2018-09-16T02:06:13.742Z,10.30
2018-09-16T02:08:42.386Z,12.23
2018-09-16T02:11:11.083Z,11.80
2018-09-16T02:13:39.748Z,11.80
2018-09-16T02:16:08.388Z,11.47
2018-09-16T02:18:37.012Z,11.80
2018-09-16T02:21:05.689Z,11.30
2018-09-16T02:23:34.378Z,11.10
2018-09-16T02:26:03.088Z,12.50
2018-09-16T02:28:31.747Z,11.20
2018-09-16T02:31:00.413Z,10.93
2018-09-16T02:33:29.088Z,11.70
2018-09-16T02:35:57.767Z,12.90
2018-09-16T02:38:26.404Z,13.30
2018-09-16T02:40:55.163Z,13.63
2018-09-16T02:43:24.048Z,13.17
2018-09-16T02:45:52.730Z,12.63
2018-09-16T02:48:21.387Z,14.07
2018-09-16T02:50:50.098Z,13.67
2018-09-16T02:53:18.744Z,13.33
2018-09-16T02:55:47.430Z,13.97
2018-09-16T02:58:16.160Z,14.30
2018-09-16T03:00:44.923Z,14.00
2018-09-16T03:03:13.598Z,12.67
2018-09-16T03:05:48.288Z,10.93
2018-09-16T03:08:17.351Z,11.63
2018-09-16T03:10:46.256Z,12.17
2018-09-16T03:13:15.150Z,10.33
2018-09-16T03:15:43.822Z,13.60
2018-09-16T03:18:12.484Z,10.43
2018-09-16T03:20:41.197Z,11.00
2018-09-16T03:23:09.876Z,10.73
2018-09-16T03:25:38.524Z,10.40
2018-09-16T03:28:07.212Z,10.13
2018-09-16T03:30:35.835Z,10.10
2018-09-16T03:33:04.523Z,10.40
2018-09-16T03:35:33.195Z,12.33
2018-09-16T03:38:01.930Z,11.30
2018-09-16T03:40:30.551Z,10.30
2018-09-16T03:42:59.218Z,10.70
2018-09-16T03:45:27.877Z,11.03
2018-09-16T03:47:56.486Z,10.90
2018-09-16T03:50:25.200Z,10.40
2018-09-16T03:52:53.959Z,11.33
2018-09-16T03:55:22.614Z,10.50
2018-09-16T03:57:51.287Z,10.50
2018-09-16T04:00:19.939Z,11.10
2018-09-16T04:02:48.562Z,10.70
2018-09-16T04:05:19.705Z,11.03
2018-09-16T04:07:49.416Z,11.63
2018-09-16T04:10:18.133Z,10.60
2018-09-16T04:12:46.976Z,10.97
2018-09-16T04:15:15.711Z,10.97
2018-09-16T04:17:44.355Z,10.17
2018-09-16T04:20:13.012Z,12.13
2018-09-16T04:22:41.734Z,12.43
2018-09-16T04:25:10.420Z,11.77
2018-09-16T04:27:39.078Z,11.70
2018-09-16T04:30:08.118Z,10.67
2018-09-16T04:32:37.152Z,10.63
2018-09-16T04:35:06.134Z,10.23
2018-09-16T04:37:38.322Z,14.33
2018-09-16T04:40:07.328Z,10.10
2018-09-16T04:42:35.980Z,10.10
2018-09-16T04:45:04.757Z,11.63
2018-09-16T04:47:33.413Z,13.20
2018-09-16T04:50:02.179Z,9.50
2018-09-16T04:52:30.754Z,10.07
2018-09-16T04:54:59.372Z,11.00
2018-09-16T04:57:27.999Z,10.70
2018-09-16T04:59:56.660Z,10.57
2018-09-16T05:02:25.300Z,10.53
2018-09-16T05:04:53.954Z,11.17
2018-09-16T05:07:22.596Z,10.40
2018-09-16T05:09:51.211Z,11.10
2018-09-16T05:12:19.876Z,13.50
2018-09-16T05:14:48.553Z,10.10
2018-09-16T05:17:17.234Z,10.47
2018-09-16T05:19:45.942Z,10.57
2018-09-16T05:22:14.626Z,10.07
2018-09-16T05:24:43.384Z,10.80
2018-09-16T05:27:12.027Z,10.70
2018-09-16T05:29:40.696Z,10.27
2018-09-16T05:32:09.367Z,11.20
2018-09-16T05:34:38.126Z,10.83
2018-09-16T05:37:07.111Z,9.90
2018-09-16T05:39:35.849Z,9.37
2018-09-16T05:42:05.448Z,9.50
2018-09-16T05:44:34.187Z,10.17
2018-09-16T05:47:02.831Z,11.20
2018-09-16T05:49:31.496Z,9.20
2018-09-16T05:52:00.170Z,12.33
2018-09-16T05:54:28.916Z,8.73
2018-09-16T05:56:57.541Z,8.23
2018-09-16T05:59:26.226Z,8.83
2018-09-16T06:01:54.912Z,8.35
2018-09-16T06:04:23.576Z,9.78
2018-09-16T06:06:52.280Z,9.13
2018-09-16T06:09:20.897Z,9.28
2018-09-16T06:11:49.517Z,7.97
2018-09-16T06:14:18.163Z,7.72
2018-09-16T06:16:46.806Z,7.60
2018-09-16T06:19:15.503Z,7.95
2018-09-16T06:21:44.138Z,8.40
2018-09-16T06:24:12.766Z,8.13
2018-09-16T06:26:41.430Z,7.58
2018-09-16T06:29:10.079Z,8.68
2018-09-16T06:31:38.726Z,7.47
2018-09-16T06:34:07.425Z,7.50
2018-09-16T06:36:36.110Z,7.10
2018-09-16T06:39:07.188Z,6.95
2018-09-16T06:41:35.851Z,7.17
2018-09-16T06:44:04.554Z,7.75
2018-09-16T06:46:33.260Z,8.13
2018-09-16T06:49:01.998Z,7.95
2018-09-16T06:51:30.711Z,7.40
2018-09-16T06:53:59.485Z,6.47
2018-09-16T06:56:28.200Z,10.50
2018-09-16T06:58:57.154Z,7.10
2018-09-16T07:01:26.076Z,7.67
2018-09-16T07:03:55.160Z,6.67
2018-09-16T07:06:23.805Z,6.75
2018-09-16T07:08:52.448Z,6.40
2018-09-16T07:11:21.115Z,6.65
2018-09-16T07:13:49.781Z,6.45
2018-09-16T07:16:18.446Z,7.30
2018-09-16T07:18:47.099Z,7.30
2018-09-16T07:21:15.762Z,6.30
2018-09-16T07:23:44.434Z,6.80
2018-09-16T07:26:13.103Z,6.47
2018-09-16T07:28:41.787Z,5.83
2018-09-16T07:31:10.480Z,7.17
2018-09-16T07:33:39.144Z,6.22
2018-09-16T07:36:07.772Z,10.30
2018-09-16T07:38:36.409Z,8.00
2018-09-16T07:41:05.041Z,6.15
2018-09-16T07:43:33.702Z,6.15
2018-09-16T07:46:02.421Z,7.12
2018-09-16T07:48:31.074Z,6.95
2018-09-16T07:50:59.772Z,6.10
2018-09-16T07:53:28.397Z,12.18
2018-09-16T07:55:57.057Z,7.92
2018-09-16T07:58:25.748Z,7.53
2018-09-16T08:00:54.410Z,6.20
2018-09-16T08:03:23.089Z,7.15
2018-09-16T08:05:51.775Z,7.00
2018-09-16T08:08:20.574Z,7.30
2018-09-16T08:10:49.353Z,9.00
2018-09-16T08:13:18.038Z,7.03
2018-09-16T08:15:46.667Z,8.57
2018-09-16T08:18:15.359Z,12.57
2018-09-16T08:20:44.053Z,7.83
2018-09-16T08:23:12.791Z,7.60
2018-09-16T08:25:41.532Z,7.37
2018-09-16T08:28:10.228Z,6.50
2018-09-16T08:30:38.888Z,7.97
2018-09-16T08:33:07.571Z,9.43
2018-09-16T08:35:36.239Z,8.00
2018-09-16T08:38:04.941Z,7.80
2018-09-16T08:40:34.060Z,7.95
2018-09-16T08:43:02.816Z,9.93
2018-09-16T08:45:31.959Z,7.80
2018-09-16T08:48:00.650Z,12.98
2018-09-16T08:50:29.677Z,6.92
2018-09-16T08:52:58.799Z,7.22
2018-09-16T08:55:27.839Z,7.87
2018-09-16T08:57:56.680Z,7.45
2018-09-16T09:00:25.864Z,7.95
2018-09-16T09:02:54.784Z,7.90
2018-09-16T09:05:23.899Z,8.45
2018-09-16T09:07:56.495Z,7.92
2018-09-16T09:10:25.200Z,8.38
2018-09-16T09:12:53.958Z,7.65
2018-09-16T09:15:23.385Z,8.38
2018-09-16T09:17:52.594Z,7.72
2018-09-16T09:20:21.344Z,8.00
2018-09-16T09:22:50.257Z,9.10
2018-09-16T09:25:19.285Z,8.58
2018-09-16T09:27:47.975Z,9.48
2018-09-16T09:30:21.512Z,8.58
2018-09-16T09:32:50.200Z,10.15
2018-09-16T09:35:19.147Z,7.28
2018-09-16T09:37:48.860Z,8.25
2018-09-16T09:40:17.875Z,7.70
2018-09-16T09:42:46.983Z,9.20
2018-09-16T09:45:15.731Z,7.35
2018-09-16T09:47:44.650Z,7.90
2018-09-16T09:50:13.364Z,7.30
2018-09-16T09:52:42.827Z,8.83
2018-09-16T09:55:11.825Z,9.35
2018-09-16T09:57:41.224Z,10.10
2018-09-16T10:00:12.788Z,10.28
2018-09-16T10:02:41.512Z,11.00
2018-09-16T10:05:10.767Z,9.53
2018-09-16T10:07:39.679Z,10.38
2018-09-16T10:10:09.361Z,8.68
2018-09-16T10:12:38.425Z,7.72
2018-09-16T10:15:07.327Z,7.45
2018-09-16T10:17:36.619Z,7.20
2018-09-16T10:20:05.669Z,6.83
2018-09-16T10:22:34.790Z,6.60
2018-09-16T10:25:04.769Z,6.55
2018-09-16T10:28:07.440Z,6.80
2018-09-16T10:30:43.383Z,7.03
2018-09-16T10:33:12.088Z,7.40
2018-09-16T10:35:41.261Z,6.60
2018-09-16T10:38:11.191Z,6.47
2018-09-16T10:40:40.207Z,6.33
2018-09-16T10:43:08.937Z,6.50
2018-09-16T10:45:38.086Z,6.10
2018-09-16T10:48:06.998Z,5.75
2018-09-16T10:50:36.047Z,5.75
2018-09-16T10:53:05.299Z,5.40
2018-09-16T10:55:34.184Z,6.67
2018-09-16T10:58:03.028Z,9.33
2018-09-16T11:00:31.706Z,6.35
2018-09-16T11:03:00.801Z,5.60
2018-09-16T11:05:29.624Z,6.35
2018-09-16T11:07:58.397Z,6.45
2018-09-16T11:10:27.151Z,5.97
2018-09-16T11:12:55.837Z,5.80
2018-09-16T11:15:24.503Z,5.72
2018-09-16T11:17:53.458Z,7.35
2018-09-16T11:20:22.128Z,6.30
2018-09-16T11:22:50.856Z,6.00
2018-09-16T11:25:19.558Z,5.92
2018-09-16T11:28:15.588Z,5.50
2018-09-16T11:30:44.464Z,6.47
2018-09-16T11:33:28.085Z,7.83
2018-09-16T11:35:56.816Z,7.62
2018-09-16T11:38:25.513Z,8.98
2018-09-16T11:40:54.236Z,7.22
2018-09-16T11:43:23.006Z,9.95
2018-09-16T11:45:52.040Z,6.72
2018-09-16T11:48:40.708Z,5.90
2018-09-16T11:51:10.216Z,8.15
2018-09-16T11:53:39.363Z,6.58
2018-09-16T11:56:08.134Z,6.20
2018-09-16T11:58:36.911Z,6.42
2018-09-16T12:01:18.679Z,7.75
2018-09-16T12:03:47.400Z,7.10
2018-09-16T12:06:16.175Z,7.00
2018-09-16T12:08:45.119Z,6.42
2018-09-16T12:11:14.085Z,6.58
2018-09-16T12:13:42.872Z,6.12
2018-09-16T12:16:11.693Z,6.35
2018-09-16T12:18:40.536Z,5.83
2018-09-16T12:21:09.716Z,5.85
2018-09-16T12:23:42.656Z,6.78
2018-09-16T12:26:12.399Z,5.62
2018-09-16T12:28:41.540Z,7.00
2018-09-16T12:31:10.412Z,7.50
2018-09-16T12:33:39.243Z,6.17
2018-09-16T12:36:09.351Z,6.50
2018-09-16T12:38:38.216Z,5.90
2018-09-16T12:41:07.073Z,6.72
2018-09-16T12:43:37.066Z,8.60
2018-09-16T12:46:06.351Z,6.65
2018-09-16T12:48:35.424Z,6.53
2018-09-16T12:51:04.148Z,6.20
2018-09-16T12:53:34.272Z,8.40
2018-09-16T12:56:02.951Z,6.33
2018-09-16T12:58:31.603Z,7.03
2018-09-16T13:01:01.215Z,6.92
2018-09-16T13:03:29.899Z,6.95
2018-09-16T13:05:58.575Z,6.40
2018-09-16T13:08:27.302Z,6.15
2018-09-16T13:10:56.370Z,7.08
2018-09-16T13:13:25.080Z,5.75
2018-09-16T13:15:53.761Z,6.20
2018-09-16T13:18:22.466Z,5.83
2018-09-16T13:20:51.173Z,6.00
2018-09-16T13:23:22.845Z,5.65
2018-09-16T13:25:51.846Z,7.50
2018-09-16T13:28:20.695Z,5.92
2018-09-16T13:30:49.643Z,6.90
2018-09-16T13:33:18.266Z,6.85
2018-09-16T13:35:47.113Z,7.65
2018-09-16T13:38:16.056Z,7.77
2018-09-16T13:40:44.763Z,6.70
2018-09-16T13:43:13.601Z,7.47
2018-09-16T13:45:42.537Z,6.77
2018-09-16T13:48:11.268Z,7.33
2018-09-16T13:50:49.971Z,9.67
2018-09-16T13:53:18.751Z,6.47
2018-09-16T13:55:47.507Z,6.23
2018-09-16T13:58:20.400Z,5.77
2018-09-16T14:00:49.191Z,5.57
2018-09-16T14:03:17.857Z,5.77
2018-09-16T14:05:46.594Z,8.13
2018-09-16T14:08:18.452Z,6.80
2018-09-16T14:10:48.391Z,7.47
2018-09-16T14:13:17.650Z,7.10
2018-09-16T14:15:46.375Z,6.80
2018-09-16T14:18:15.168Z,7.60
2018-09-16T14:20:44.277Z,7.70
2018-09-16T14:23:13.037Z,7.03
2018-09-16T14:25:41.778Z,10.00
2018-09-16T14:28:10.473Z,8.50
2018-09-16T14:30:39.158Z,11.60
2018-09-16T14:33:07.970Z,6.03
2018-09-16T14:35:37.617Z,8.73
2018-09-16T14:38:06.337Z,13.83
2018-09-16T14:40:35.274Z,7.97
2018-09-16T14:43:03.974Z,10.30
2018-09-16T14:45:32.692Z,12.10
2018-09-16T14:48:01.379Z,6.00
2018-09-16T14:50:30.079Z,6.00
2018-09-16T14:52:58.788Z,5.57
2018-09-16T14:55:27.724Z,6.90
2018-09-16T14:57:56.705Z,6.43
2018-09-16T15:00:27.823Z,8.73
2018-09-16T15:02:56.652Z,7.43
2018-09-16T15:05:25.406Z,8.00
2018-09-16T15:07:54.286Z,8.07
2018-09-16T15:10:37.527Z,9.60
2018-09-16T15:13:06.685Z,8.30
2018-09-16T15:15:35.376Z,9.03
2018-09-16T15:18:04.117Z,8.70
2018-09-16T15:20:32.883Z,10.00
2018-09-16T15:23:01.660Z,8.33
2018-09-16T15:25:30.372Z,7.60
2018-09-16T15:27:59.114Z,8.03
2018-09-16T15:30:27.846Z,6.53
2018-09-16T15:32:56.817Z,7.87
2018-09-16T15:35:26.522Z,7.50
2018-09-16T15:37:55.723Z,6.57
2018-09-16T15:40:24.432Z,9.50
2018-09-16T15:42:53.431Z,6.40
2018-09-16T15:45:22.124Z,9.77
2018-09-16T15:47:50.853Z,5.90
2018-09-16T15:50:20.161Z,7.53
2018-09-16T15:52:49.169Z,6.03
2018-09-16T15:55:17.946Z,6.40
2018-09-16T15:57:46.568Z,7.80
2018-09-16T16:00:15.341Z,5.70
2018-09-16T16:02:44.163Z,10.90
2018-09-16T16:05:13.094Z,8.70
2018-09-16T16:07:41.788Z,11.43
2018-09-16T16:10:10.871Z,6.83
2018-09-16T16:12:39.604Z,10.50
2018-09-16T16:15:08.345Z,14.23
2018-09-16T16:17:37.026Z,7.37
2018-09-16T16:20:05.803Z,6.90
2018-09-16T16:22:34.508Z,5.70
2018-09-16T16:25:03.759Z,8.40
2018-09-16T16:27:33.425Z,8.17
2018-09-16T16:30:05.266Z,7.23
2018-09-16T16:32:33.943Z,7.77
2018-09-16T16:35:03.618Z,6.27
2018-09-16T16:37:32.377Z,8.07
2018-09-16T16:40:01.124Z,7.70
2018-09-16T16:42:29.891Z,7.00
2018-09-16T16:44:58.657Z,7.13
2018-09-16T16:47:27.320Z,7.27
2018-09-16T16:49:56.073Z,6.77
2018-09-16T16:52:24.742Z,8.00
2018-09-16T16:54:53.450Z,18.87
2018-09-16T16:57:22.120Z,7.50
2018-09-16T16:59:50.773Z,7.53
2018-09-16T17:02:19.411Z,8.33
2018-09-16T17:04:48.147Z,8.87
2018-09-16T17:07:16.886Z,6.50
2018-09-16T17:09:45.539Z,7.20
2018-09-16T17:12:14.209Z,6.93
2018-09-16T17:14:42.878Z,8.47
2018-09-16T17:17:11.613Z,6.73
2018-09-16T17:19:40.299Z,10.87
2018-09-16T17:22:09.021Z,8.43
2018-09-16T17:24:37.687Z,8.43
2018-09-16T17:27:06.471Z,7.97
2018-09-16T17:29:35.133Z,7.93
2018-09-16T17:32:04.037Z,7.63
2018-09-16T17:34:32.832Z,6.87
2018-09-16T17:37:01.541Z,6.27
2018-09-16T17:39:30.222Z,8.93
2018-09-16T17:41:58.924Z,8.07
2018-09-16T17:44:27.664Z,5.80
2018-09-16T17:46:56.706Z,6.07
2018-09-16T17:49:25.780Z,6.13
2018-09-16T17:51:54.516Z,5.70
2018-09-16T17:54:23.553Z,8.30
2018-09-16T17:56:52.436Z,6.90
2018-09-16T17:59:21.170Z,6.40
2018-09-16T18:01:49.867Z,7.30
2018-09-16T18:04:18.570Z,8.17
2018-09-16T18:06:47.363Z,7.57
2018-09-16T18:09:16.063Z,6.00
2018-09-16T18:11:44.932Z,7.77
2018-09-16T18:14:13.646Z,5.57
2018-09-16T18:16:42.620Z,6.20
2018-09-16T18:19:11.282Z,7.13
2018-09-16T18:21:39.938Z,8.10
2018-09-16T18:24:08.762Z,7.43
2018-09-16T18:26:37.664Z,7.77
2018-09-16T18:29:06.472Z,8.30
2018-09-16T18:31:35.193Z,8.90
2018-09-16T18:34:04.730Z,9.30
2018-09-16T18:36:33.581Z,8.50
2018-09-16T18:39:02.333Z,6.60
2018-09-16T18:41:31.010Z,7.47
2018-09-16T18:43:59.680Z,6.63
2018-09-16T18:46:28.386Z,7.30
2018-09-16T18:48:57.084Z,8.07
2018-09-16T18:51:25.792Z,6.73
2018-09-16T18:53:54.499Z,8.23
2018-09-16T18:56:23.224Z,12.07
2018-09-16T18:58:52.490Z,7.33
2018-09-16T19:01:21.208Z,7.97
2018-09-16T19:03:50.218Z,6.17
2018-09-16T19:06:18.882Z,7.70
2018-09-16T19:08:47.539Z,7.97
2018-09-16T19:11:16.261Z,9.53
2018-09-16T19:13:45.299Z,7.00
2018-09-16T19:16:14.112Z,7.93
2018-09-16T19:18:42.853Z,6.17
2018-09-16T19:21:11.774Z,6.17
2018-09-16T19:23:41.345Z,5.97
2018-09-16T19:26:10.783Z,7.80
2018-09-16T19:28:39.549Z,6.30
2018-09-16T19:31:09.664Z,5.43
2018-09-16T19:33:38.556Z,5.97
2018-09-16T19:36:07.540Z,7.33
2018-09-16T19:38:36.268Z,5.07
2018-09-16T19:41:24.050Z,7.13
2018-09-16T19:43:52.719Z,6.93
2018-09-16T19:46:21.472Z,5.40
2018-09-16T19:48:50.224Z,5.57
2018-09-16T19:51:19.203Z,5.70
2018-09-16T19:53:48.233Z,7.17
2018-09-16T19:56:16.991Z,10.47
2018-09-16T19:58:45.694Z,5.13
2018-09-16T20:01:14.379Z,7.40
2018-09-16T20:03:43.095Z,5.30
2018-09-16T20:06:11.794Z,5.47
2018-09-16T20:08:40.488Z,5.10
2018-09-16T20:11:09.475Z,6.73
2018-09-16T20:13:38.150Z,7.20
2018-09-16T20:16:06.828Z,5.97
2018-09-16T20:18:35.572Z,7.37
2018-09-16T20:21:04.719Z,5.37
2018-09-16T20:23:33.452Z,4.60
2018-09-16T20:26:02.154Z,5.57
2018-09-16T20:28:30.875Z,11.97
2018-09-16T20:30:59.716Z,4.90
2018-09-16T20:33:28.390Z,5.60
2018-09-16T20:35:57.047Z,5.83
2018-09-16T20:38:25.789Z,4.77
2018-09-16T20:40:54.423Z,5.10
2018-09-16T20:43:23.091Z,6.90
2018-09-16T20:45:51.759Z,5.03
2018-09-16T20:48:20.415Z,5.50
2018-09-16T20:50:49.055Z,7.53
2018-09-16T20:53:17.696Z,7.87
2018-09-16T20:55:46.874Z,9.77
2018-09-16T20:58:15.597Z,11.07
2018-09-16T21:00:44.351Z,12.27
2018-09-16T21:03:13.077Z,10.97
2018-09-16T21:05:41.793Z,10.17
2018-09-16T21:08:10.441Z,9.40
2018-09-16T21:10:39.096Z,7.83
2018-09-16T21:13:07.820Z,7.10
2018-09-16T21:15:36.459Z,6.40
2018-09-16T21:18:05.146Z,9.63
2018-09-16T21:20:33.798Z,6.30
2018-09-16T21:23:02.443Z,9.60
2018-09-16T21:25:31.125Z,7.77
2018-09-16T21:27:59.805Z,9.00
2018-09-16T21:30:28.490Z,6.87
2018-09-16T21:32:57.123Z,6.60
2018-09-16T21:35:25.795Z,6.60
2018-09-16T21:37:54.475Z,7.67
2018-09-16T21:40:23.149Z,8.33
2018-09-16T21:42:51.803Z,8.47
2018-09-16T21:45:20.562Z,7.47
2018-09-16T21:47:49.317Z,7.10
2018-09-16T21:50:18.062Z,7.13
2018-09-16T21:52:46.774Z,8.97
2018-09-16T21:55:15.593Z,6.23
2018-09-16T21:57:44.300Z,7.03
2018-09-16T22:00:15.697Z,6.73
2018-09-16T22:02:44.404Z,6.63
2018-09-16T22:05:13.202Z,6.20
2018-09-16T22:07:41.843Z,6.80
2018-09-16T22:10:10.530Z,7.40
2018-09-16T22:12:39.263Z,7.23
2018-09-16T22:15:07.967Z,7.67
2018-09-16T22:17:36.722Z,7.80
2018-09-16T22:20:05.438Z,6.47
2018-09-16T22:22:34.111Z,6.17
2018-09-16T22:25:02.750Z,7.73
2018-09-16T22:27:31.381Z,7.13
2018-09-16T22:30:00.074Z,7.40
2018-09-16T22:32:28.753Z,7.73
2018-09-16T22:34:57.408Z,8.40
2018-09-16T22:37:26.137Z,10.83
2018-09-16T22:39:54.791Z,9.33
2018-09-16T22:42:23.479Z,7.47
2018-09-16T22:44:52.151Z,7.17
2018-09-16T22:47:20.848Z,6.93
2018-09-16T22:49:49.540Z,7.57
2018-09-16T22:52:18.512Z,7.03
2018-09-16T22:54:47.214Z,8.33
2018-09-16T22:57:15.878Z,6.90
2018-09-16T22:59:44.789Z,9.60
2018-09-16T23:02:13.557Z,9.63
2018-09-16T23:04:42.260Z,11.63
2018-09-16T23:07:11.364Z,11.60
2018-09-16T23:09:40.003Z,10.30
2018-09-16T23:12:08.634Z,11.53
2018-09-16T23:14:37.265Z,11.00
2018-09-16T23:17:06.042Z,9.73
2018-09-16T23:19:34.701Z,10.63
2018-09-16T23:22:03.403Z,10.50
2018-09-16T23:24:32.127Z,10.50
2018-09-16T23:27:00.778Z,9.87
2018-09-16T23:29:29.491Z,9.87
2018-09-16T23:31:58.186Z,9.90
2018-09-16T23:34:26.880Z,10.77
2018-09-16T23:36:55.568Z,10.63
2018-09-16T23:39:24.247Z,9.57
2018-09-16T23:41:53.057Z,11.73
2018-09-16T23:44:21.795Z,10.43
2018-09-16T23:46:50.454Z,11.30
2018-09-16T23:49:19.276Z,11.60
2018-09-16T23:51:47.932Z,10.57
2018-09-16T23:54:16.612Z,11.50
2018-09-16T23:56:45.291Z,10.73
2018-09-16T23:59:13.965Z,12.43
